Kezdőlap
METAR-TAF:

METAR-TAF

Repülőterek :

Luxeuil-les-Bains, Franciaország

földrajzi szélesség: 47-47N, földrajzi hosszúság: 006-21E, magasság: 278 m

Jelenlegi meteorológiai megfigyelések

A jelentés 21 perccel ezelõtt készült, 08:00 UTC
Északi szél 8 kt
Hőmérséklet 2°C
Páratartalom 69%
Légköri nyomás 1041 hPa
Látótávolság 10 km, vagy több
felhőtlen 1500 m magasságban, és nincs gomolyfelhõ

METAR: LFSX 200800Z AUTO 01008KT CAVOK 02/M03 Q1041

Idő: 09:21 (08:21 UTC)

Előrejelzés

A jelentés 3 órával és 51 perccel ezelõtt készült, 04:30 UTC
Az előrejelzés 20-én 05 óra UTC és 21-én 03 óra UTC között érvényes
Észak-északkeleti szél 8 kt
Látótávolság 10 km, vagy több
felhőtlen 1500 m magasságban, és nincs gomolyfelhõ

TAF: LFSX 200430Z 2005/2103 03008KT CAVOK

Meteorológiai megfigyelések és előrejelzések több, mint 4000 repülőtéren (METAR és TAF jelentéseket).

A térképen piros és sárga pontok jelzik az elérhető meteorológiai állomásokat.

Mozgassa az egeret a pont fölött, hogy megjelenjen az állomás neve.

Azután kattintson az időjárási megfigyelések és előrejelzések megtekintéséhez.

A térkép megváltoztatása: kattintson a fekete keresztel jelölt zöld gombra ráközelítéshez, a vonallal jelölt zöld gombra távolításhoz, vagy a zöld nyilakra a szomszédos térképek eléréséhez.


METAR-TAF: